Time;durP1;ratioP1;P1;durP2;ratioP2;P2;SDS_P1;SDS_P2;PMS_P1;PMS_P2;Temp;Humidity;BMP_temperature;BMP_pressure;BME280_temperature;BME280_humidity;BME280_pressure;Samples;Min_cycle;Max_cycle;Signal;HPM_P1;HPM_P2
2023/09/13 00:01:41;;;;;;;18.20;11.43;;;19.10;99.90;;;;;;6211200;23;20345;-69
2023/09/13 00:04:07;;;;;;;20.23;12.15;;;19.10;99.90;;;;;;6211556;23;20100;-69
2023/09/13 00:06:33;;;;;;;18.52;11.40;;;19.10;99.90;;;;;;6211246;23;20143;-69
2023/09/13 00:08:58;;;;;;;17.95;11.48;;;19.10;99.90;;;;;;6211237;23;20094;-70
2023/09/13 00:11:24;;;;;;;18.98;11.60;;;19.10;99.90;;;;;;6211169;23;20024;-69
2023/09/13 00:13:50;;;;;;;20.33;11.18;;;19.10;99.90;;;;;;6211429;23;20389;-69
2023/09/13 00:16:16;;;;;;;19.63;11.52;;;19.10;99.90;;;;;;6211799;23;20023;-69
2023/09/13 00:18:41;;;;;;;18.20;9.90;;;19.10;99.90;;;;;;6211656;23;20074;-69
2023/09/13 00:21:10;;;;;;;18.27;10.23;;;19.10;99.90;;;;;;6211335;23;20086;-70
2023/09/13 00:23:36;;;;;;;19.85;9.35;;;19.10;99.90;;;;;;6211420;23;20039;-69
2023/09/13 00:26:02;;;;;;;16.60;9.55;;;19.10;99.90;;;;;;6210917;23;20339;-69
2023/09/13 00:28:27;;;;;;;15.82;8.48;;;19.10;99.90;;;;;;6211307;23;20087;-69
2023/09/13 00:30:53;;;;;;;20.90;10.35;;;19.10;99.90;;;;;;6210978;23;20013;-69
2023/09/13 00:33:19;;;;;;;14.75;8.52;;;19.10;99.90;;;;;;6211319;23;20025;-69
2023/09/13 00:35:45;;;;;;;16.27;8.80;;;19.10;99.90;;;;;;6210905;23;20032;-68
2023/09/13 00:38:11;;;;;;;15.90;8.93;;;19.10;99.90;;;;;;6210911;23;20017;-69
2023/09/13 00:40:37;;;;;;;17.02;8.70;;;19.10;99.90;;;;;;6211107;23;20395;-69
2023/09/13 00:43:03;;;;;;;15.43;7.85;;;19.10;99.90;;;;;;6184276;23;20024;-69
2023/09/13 00:45:31;;;;;;;16.23;7.90;;;19.10;99.90;;;;;;6184176;23;20013;-69
2023/09/13 00:47:57;;;;;;;13.20;7.25;;;19.10;99.90;;;;;;6184119;23;20016;-69
2023/09/13 00:50:23;;;;;;;14.43;7.35;;;19.00;99.90;;;;;;6210976;23;20017;-69
2023/09/13 00:52:49;;;;;;;17.08;7.97;;;19.00;99.90;;;;;;6210907;23;20397;-69
2023/09/13 00:55:18;;;;;;;15.75;7.40;;;19.00;99.90;;;;;;6210972;23;20371;-69
2023/09/13 00:57:44;;;;;;;10.30;6.55;;;19.00;99.90;;;;;;6211186;23;20376;-69
2023/09/13 01:00:11;;;;;;;11.15;6.47;;;19.00;99.90;;;;;;6210573;23;20072;-69
2023/09/13 01:02:41;;;;;;;13.07;6.80;;;19.00;99.90;;;;;;6211216;23;20055;-69
2023/09/13 01:05:08;;;;;;;17.60;6.90;;;19.00;99.90;;;;;;6211127;23;20391;-69
2023/09/13 01:07:35;;;;;;;10.40;6.53;;;19.10;99.90;;;;;;6210420;23;20021;-69
2023/09/13 01:10:01;;;;;;;17.05;7.38;;;19.00;99.90;;;;;;6183885;23;20032;-69
2023/09/13 01:12:27;;;;;;;12.13;7.20;;;19.10;99.90;;;;;;6211039;23;20075;-69
2023/09/13 01:14:53;;;;;;;12.23;6.82;;;19.00;99.90;;;;;;6184036;23;20024;-69
2023/09/13 01:17:33;;;;;;;16.00;7.15;;;19.00;99.90;;;;;;6210683;23;20315;-69
2023/09/13 01:20:24;;;;;;;14.25;6.40;;;19.00;99.90;;;;;;6184003;23;20490;-69
2023/09/13 01:23:29;;;;;;;16.20;5.57;;;19.00;99.90;;;;;;6210381;23;20046;-69
2023/09/13 01:26:01;;;;;;;15.45;5.40;;;18.90;99.90;;;;;;6210692;23;20020;-69
2023/09/13 01:28:35;;;;;;;9.02;4.95;;;18.90;99.90;;;;;;6210683;23;20055;-69
2023/09/13 01:31:06;;;;;;;16.30;5.80;;;18.90;99.90;;;;;;6210967;23;20016;-69
2023/09/13 01:33:32;;;;;;;11.25;5.20;;;18.80;99.90;;;;;;6210909;23;20042;-69
2023/09/13 01:35:59;;;;;;;14.70;4.75;;;18.80;99.90;;;;;;6210633;23;20495;-69
2023/09/13 01:38:24;;;;;;;14.77;5.03;;;18.80;99.90;;;;;;6210817;23;20025;-69
2023/09/13 01:40:56;;;;;;;15.13;4.80;;;18.70;99.90;;;;;;6212056;23;20021;-69
2023/09/13 01:43:23;;;;;;;14.98;4.57;;;18.70;99.90;;;;;;6212721;23;20029;-69
2023/09/13 01:45:50;;;;;;;8.15;4.45;;;18.70;99.90;;;;;;6212859;23;20020;-69
2023/09/13 01:48:18;;;;;;;9.82;4.13;;;18.70;99.90;;;;;;6212428;23;20044;-70
2023/09/13 01:50:44;;;;;;;11.27;4.70;;;18.60;99.90;;;;;;6211924;23;20017;-69
2023/09/13 01:53:10;;;;;;;11.07;5.65;;;18.60;99.90;;;;;;6212679;23;20501;-69
2023/09/13 01:55:35;;;;;;;10.15;4.60;;;18.60;99.90;;;;;;6185494;23;20048;-69
2023/09/13 01:58:01;;;;;;;15.82;4.65;;;18.60;99.90;;;;;;6212550;23;20016;-69
2023/09/13 02:00:27;;;;;;;11.32;4.20;;;18.50;99.90;;;;;;6212495;23;20020;-69
2023/09/13 02:02:53;;;;;;;9.70;3.80;;;18.50;99.90;;;;;;6212307;23;20600;-69
2023/09/13 02:05:19;;;;;;;12.45;3.67;;;18.50;99.90;;;;;;6212236;23;20020;-69
2023/09/13 02:07:44;;;;;;;9.63;3.63;;;18.50;99.90;;;;;;6212588;23;20020;-69
2023/09/13 02:10:10;;;;;;;9.82;3.25;;;18.50;99.90;;;;;;6213466;23;20463;-69
2023/09/13 02:12:35;;;;;;;9.02;3.53;;;18.50;99.90;;;;;;6212529;23;20083;-69
2023/09/13 02:15:01;;;;;;;10.18;3.65;;;18.50;99.90;;;;;;6212371;23;20027;-69
2023/09/13 02:17:27;;;;;;;8.75;3.10;;;18.50;99.90;;;;;;6212202;23;20399;-69
2023/09/13 02:19:53;;;;;;;5.78;2.60;;;18.50;99.90;;;;;;6212245;23;20028;-69
2023/09/13 02:22:18;;;;;;;7.80;3.10;;;18.50;99.90;;;;;;6185441;23;20016;-69
2023/09/13 02:24:44;;;;;;;5.05;2.67;;;18.40;99.90;;;;;;6211923;23;20071;-69
2023/09/13 02:27:10;;;;;;;8.07;3.00;;;18.40;99.90;;;;;;6185692;23;20320;-69
2023/09/13 02:29:35;;;;;;;14.02;2.85;;;18.30;99.90;;;;;;6212323;23;20232;-69
2023/09/13 02:32:01;;;;;;;9.80;2.78;;;18.40;99.90;;;;;;6212269;23;20051;-69
2023/09/13 02:34:27;;;;;;;8.70;2.58;;;18.30;99.90;;;;;;6211941;23;20332;-70
2023/09/13 02:36:52;;;;;;;7.07;2.10;;;18.30;99.90;;;;;;6212018;23;20028;-69
2023/09/13 02:39:39;;;;;;;8.77;2.20;;;18.30;99.90;;;;;;6184803;23;20051;-69
2023/09/13 02:42:06;;;;;;;12.27;2.72;;;18.20;99.90;;;;;;6211801;23;20021;-69
2023/09/13 02:44:33;;;;;;;7.05;2.50;;;18.30;99.90;;;;;;6211726;23;20020;-69
2023/09/13 02:46:59;;;;;;;7.90;2.85;;;18.30;99.90;;;;;;6212132;23;20016;-69
2023/09/13 02:49:25;;;;;;;8.23;2.50;;;18.20;99.90;;;;;;6211413;23;20025;-69
2023/09/13 02:51:51;;;;;;;8.68;2.83;;;18.20;99.90;;;;;;6211285;23;20055;-69
2023/09/13 02:54:18;;;;;;;8.07;2.60;;;18.20;99.90;;;;;;6211962;23;20024;-69
2023/09/13 02:56:45;;;;;;;7.13;2.58;;;18.20;99.90;;;;;;6185431;23;20074;-69
2023/09/13 02:59:11;;;;;;;6.25;2.80;;;18.20;99.90;;;;;;6184875;23;20023;-70
2023/09/13 03:01:36;;;;;;;5.63;3.15;;;18.20;99.90;;;;;;6211512;23;20024;-70
2023/09/13 03:04:03;;;;;;;7.22;2.58;;;18.20;99.90;;;;;;6184819;23;20079;-70
2023/09/13 03:06:29;;;;;;;8.25;2.95;;;18.10;99.90;;;;;;6212110;23;20028;-69
2023/09/13 03:08:57;;;;;;;11.65;3.30;;;18.20;99.90;;;;;;6211740;23;20516;-69
2023/09/13 03:11:23;;;;;;;9.88;3.25;;;18.10;99.90;;;;;;6185182;23;20021;-69
2023/09/13 03:13:49;;;;;;;8.20;3.00;;;18.10;99.90;;;;;;6212204;23;20031;-69
2023/09/13 03:16:19;;;;;;;12.10;3.03;;;18.10;99.90;;;;;;6184823;23;20043;-70
2023/09/13 03:18:48;;;;;;;8.40;2.88;;;18.10;99.90;;;;;;6211546;23;20356;-69
2023/09/13 03:21:14;;;;;;;5.57;2.67;;;18.10;99.90;;;;;;6211549;23;20378;-69
2023/09/13 03:23:42;;;;;;;9.40;2.92;;;18.10;99.90;;;;;;6185089;23;20029;-69
2023/09/13 03:26:13;;;;;;;12.43;3.15;;;17.90;99.90;;;;;;6211348;23;20020;-69
2023/09/13 03:28:39;;;;;;;8.27;2.80;;;18.00;99.90;;;;;;6211408;23;20043;-69
2023/09/13 03:31:12;;;;;;;6.10;2.75;;;18.00;99.90;;;;;;6211540;23;20446;-69
2023/09/13 03:33:40;;;;;;;14.65;3.40;;;18.00;99.90;;;;;;6184310;23;20017;-69
2023/09/13 03:36:10;;;;;;;11.65;3.38;;;18.00;99.90;;;;;;6211695;23;20020;-69
2023/09/13 03:38:40;;;;;;;7.90;3.47;;;18.00;99.90;;;;;;6211440;23;20021;-69
2023/09/13 03:41:07;;;;;;;6.07;2.83;;;17.90;99.90;;;;;;6211434;23;20029;-69
2023/09/13 03:43:33;;;;;;;10.55;3.25;;;17.90;99.90;;;;;;6211872;23;20394;-69
2023/09/13 03:45:59;;;;;;;6.93;2.65;;;17.90;99.90;;;;;;6211892;23;20052;-69
2023/09/13 03:48:25;;;;;;;9.18;2.78;;;17.90;99.90;;;;;;6184417;23;20476;-69
2023/09/13 03:50:51;;;;;;;6.18;2.65;;;17.90;99.90;;;;;;6211271;23;20020;-69
2023/09/13 03:53:17;;;;;;;8.77;3.20;;;17.90;99.90;;;;;;6211472;23;20025;-70
2023/09/13 03:55:43;;;;;;;6.90;2.50;;;17.90;99.90;;;;;;6211240;23;20043;-69
2023/09/13 03:58:08;;;;;;;9.50;3.05;;;17.90;99.90;;;;;;6184530;23;20051;-70
2023/09/13 04:00:37;;;;;;;5.28;2.50;;;17.90;99.90;;;;;;6211061;23;20028;-69
2023/09/13 04:03:04;;;;;;;7.60;2.70;;;17.80;99.90;;;;;;6211150;23;20135;-69
2023/09/13 04:05:30;;;;;;;13.95;3.22;;;17.80;99.90;;;;;;6211647;23;20032;-69
2023/09/13 04:07:57;;;;;;;10.43;3.30;;;17.80;99.90;;;;;;6211773;23;20055;-69
2023/09/13 04:10:23;;;;;;;6.45;3.33;;;17.80;99.90;;;;;;6211711;23;20025;-70
2023/09/13 04:12:49;;;;;;;8.25;3.20;;;17.80;99.90;;;;;;6211835;23;20062;-69
2023/09/13 04:15:15;;;;;;;8.43;3.00;;;17.80;99.90;;;;;;6211392;23;20035;-69
2023/09/13 04:17:41;;;;;;;8.32;2.65;;;17.80;99.90;;;;;;6211453;23;20019;-69
2023/09/13 04:20:08;;;;;;;9.93;3.15;;;17.70;99.90;;;;;;6211211;23;20103;-69
2023/09/13 04:22:33;;;;;;;7.57;2.85;;;17.70;99.90;;;;;;6184378;23;20020;-69
2023/09/13 04:24:59;;;;;;;7.03;2.78;;;17.60;99.90;;;;;;6210729;23;20098;-69
2023/09/13 04:27:25;;;;;;;7.35;3.42;;;17.70;99.90;;;;;;6184201;23;20033;-69
2023/09/13 04:29:54;;;;;;;7.80;2.92;;;17.70;99.90;;;;;;6210531;23;20107;-69
2023/09/13 04:32:21;;;;;;;11.85;3.60;;;17.60;99.90;;;;;;6184250;23;20421;-69
2023/09/13 04:34:46;;;;;;;9.90;3.03;;;17.70;99.90;;;;;;6210769;23;20043;-69
2023/09/13 04:37:12;;;;;;;6.78;2.35;;;17.60;99.90;;;;;;6184070;23;20070;-69
2023/09/13 04:39:38;;;;;;;6.55;2.83;;;17.60;99.90;;;;;;6183849;23;20514;-70
2023/09/13 04:42:05;;;;;;;4.18;2.88;;;17.60;99.90;;;;;;6210683;23;20024;-69
2023/09/13 04:44:31;;;;;;;8.95;3.35;;;17.50;99.90;;;;;;6210869;23;20016;-69
2023/09/13 04:46:58;;;;;;;7.70;3.55;;;17.60;99.90;;;;;;6211075;23;20105;-70
2023/09/13 04:49:24;;;;;;;10.35;3.25;;;17.60;99.90;;;;;;6210673;23;20705;-69
2023/09/13 04:51:50;;;;;;;4.57;2.90;;;17.60;99.90;;;;;;6211014;23;20021;-69
2023/09/13 04:54:16;;;;;;;9.40;3.28;;;17.60;99.90;;;;;;6211071;23;20055;-70
2023/09/13 04:56:41;;;;;;;8.05;3.15;;;17.60;99.90;;;;;;6184011;23;20021;-69
2023/09/13 04:59:07;;;;;;;5.05;2.78;;;17.60;99.90;;;;;;6210446;23;20024;-69
2023/09/13 05:01:33;;;;;;;10.85;2.88;;;17.50;99.90;;;;;;6159219;23;20020;-69
2023/09/13 05:03:58;;;;;;;6.05;2.63;;;17.50;99.90;;;;;;6211073;23;20330;-69
2023/09/13 05:06:24;;;;;;;8.13;2.95;;;17.50;99.90;;;;;;6184094;23;20129;-69
2023/09/13 05:08:52;;;;;;;6.93;3.22;;;17.50;99.90;;;;;;6211102;23;20020;-69
2023/09/13 05:11:19;;;;;;;10.73;3.08;;;17.60;99.90;;;;;;6183887;23;20024;-69
2023/09/13 05:13:47;;;;;;;7.20;3.30;;;17.50;99.90;;;;;;6210657;23;20016;-69
2023/09/13 05:16:20;;;;;;;7.03;3.08;;;17.40;99.90;;;;;;6212049;23;20099;-69
2023/09/13 05:18:46;;;;;;;11.75;3.10;;;17.40;99.90;;;;;;6212898;23;20017;-69
2023/09/13 05:21:12;;;;;;;6.57;2.63;;;17.30;99.90;;;;;;6185678;23;20095;-69
2023/09/13 05:23:38;;;;;;;8.38;2.83;;;17.30;99.90;;;;;;6212589;23;20048;-70
2023/09/13 05:26:03;;;;;;;5.85;3.63;;;17.30;99.90;;;;;;6212075;23;20020;-69
2023/09/13 05:28:36;;;;;;;13.70;3.70;;;17.20;99.90;;;;;;6212612;23;20100;-69
2023/09/13 05:31:02;;;;;;;;;;;17.20;99.90;;;;;;6186088;23;20100;-69
2023/09/13 05:33:28;;;;;;;7.72;2.58;;;17.20;99.90;;;;;;6212678;23;19915;-69
2023/09/13 05:35:54;;;;;;;5.97;3.10;;;17.20;99.90;;;;;;6212712;23;20628;-69
2023/09/13 05:38:21;;;;;;;10.05;3.05;;;17.20;99.90;;;;;;6185444;23;20020;-69
2023/09/13 05:40:47;;;;;;;12.20;3.00;;;17.10;99.90;;;;;;6185345;23;20079;-69
2023/09/13 05:43:12;;;;;;;8.60;2.58;;;17.20;99.90;;;;;;6212421;23;20024;-69
2023/09/13 05:45:40;;;;;;;6.70;2.60;;;17.10;99.90;;;;;;6212771;23;20087;-69
2023/09/13 05:48:06;;;;;;;10.43;2.70;;;17.10;99.90;;;;;;6185755;23;20028;-69
2023/09/13 05:50:32;;;;;;;10.55;3.05;;;17.10;99.90;;;;;;6185224;23;20075;-68
2023/09/13 05:52:57;;;;;;;7.47;2.30;;;17.00;99.90;;;;;;6212353;23;20020;-69
2023/09/13 05:55:23;;;;;;;5.45;1.85;;;16.80;99.90;;;;;;6212501;23;20055;-70
2023/09/13 05:57:51;;;;;;;10.05;1.80;;;16.70;99.90;;;;;;6185410;23;20458;-68
2023/09/13 06:00:18;;;;;;;8.95;1.95;;;16.60;99.90;;;;;;6160613;23;20096;-67
2023/09/13 06:02:44;;;;;;;7.20;2.03;;;16.40;99.90;;;;;;6185532;23;20099;-69
2023/09/13 06:05:10;;;;;;;7.70;1.88;;;16.30;99.90;;;;;;6186932;23;20110;-69
2023/09/13 06:07:36;;;;;;;6.78;2.00;;;16.20;99.90;;;;;;6185638;23;20448;-68
2023/09/13 06:10:05;;;;;;;8.77;2.22;;;16.20;99.90;;;;;;6212534;23;20019;-68
2023/09/13 06:12:31;;;;;;;6.85;2.13;;;16.20;99.90;;;;;;6211876;23;20016;-68
2023/09/13 06:14:59;;;;;;;8.75;1.73;;;16.10;99.90;;;;;;6185199;23;20023;-67
2023/09/13 06:17:25;;;;;;;5.45;1.95;;;16.10;99.90;;;;;;6212285;23;20017;-67
2023/09/13 06:19:51;;;;;;;7.60;1.95;;;15.90;99.90;;;;;;6212184;23;20075;-67
2023/09/13 06:22:17;;;;;;;8.10;1.75;;;15.70;99.90;;;;;;6211634;23;20067;-70
2023/09/13 06:24:44;;;;;;;6.43;1.92;;;15.50;99.90;;;;;;6211784;23;20017;-67
2023/09/13 06:27:10;;;;;;;4.30;1.88;;;15.40;99.90;;;;;;6211488;23;20317;-67
2023/09/13 06:29:35;;;;;;;9.15;1.98;;;15.40;99.90;;;;;;6212009;23;20024;-67
2023/09/13 06:32:03;;;;;;;6.43;1.83;;;15.30;99.90;;;;;;6212025;23;20016;-67
2023/09/13 06:34:28;;;;;;;7.10;1.50;;;15.30;99.90;;;;;;6212275;23;20013;-69
2023/09/13 06:36:55;;;;;;;2.60;1.30;;;15.40;99.90;;;;;;6212161;23;20031;-69
2023/09/13 06:39:21;;;;;;;4.15;1.75;;;15.30;99.90;;;;;;6212521;23;20532;-70
2023/09/13 06:41:47;;;;;;;4.03;1.02;;;15.30;99.90;;;;;;6212146;23;20020;-70
2023/09/13 06:44:14;;;;;;;3.53;1.30;;;15.30;99.90;;;;;;6212084;23;20388;-69
2023/09/13 06:46:41;;;;;;;4.43;1.08;;;15.20;99.90;;;;;;6212135;23;20025;-70
2023/09/13 06:49:07;;;;;;;2.70;1.10;;;15.10;99.90;;;;;;6211961;23;20314;-69
2023/09/13 06:51:32;;;;;;;6.25;2.03;;;15.10;99.90;;;;;;6211390;23;20063;-70
2023/09/13 06:53:59;;;;;;;2.92;1.60;;;15.10;99.90;;;;;;6211542;23;20063;-69
2023/09/13 06:56:25;;;;;;;4.38;1.50;;;15.00;99.90;;;;;;6211385;23;20024;-69
2023/09/13 06:58:52;;;;;;;5.75;1.30;;;15.00;99.90;;;;;;6211836;23;20588;-70
2023/09/13 07:01:19;;;;;;;5.15;1.38;;;15.00;99.90;;;;;;6184969;23;20022;-70
2023/09/13 07:03:45;;;;;;;4.47;1.25;;;14.90;99.90;;;;;;6211416;23;20093;-70
2023/09/13 07:06:14;;;;;;;1.65;1.10;;;14.90;99.90;;;;;;6184733;23;20031;-69
2023/09/13 07:08:42;;;;;;;4.20;1.27;;;14.90;99.90;;;;;;6211817;23;20029;-70
2023/09/13 07:11:07;;;;;;;3.33;1.33;;;14.80;99.90;;;;;;6211428;23;20019;-69
2023/09/13 07:13:33;;;;;;;2.15;1.38;;;15.00;99.90;;;;;;6184660;23;20099;-71
2023/09/13 07:15:59;;;;;;;5.85;2.30;;;14.90;99.90;;;;;;6185094;23;20021;-72
2023/09/13 07:18:25;;;;;;;6.38;1.50;;;14.80;99.90;;;;;;6211945;23;20089;-71
2023/09/13 07:20:50;;;;;;;3.80;1.48;;;14.90;99.90;;;;;;6211998;23;20016;-71
2023/09/13 07:23:16;;;;;;;4.18;1.50;;;14.90;99.90;;;;;;6211969;23;20357;-71
2023/09/13 07:25:42;;;;;;;6.00;1.45;;;14.90;99.90;;;;;;6211544;23;20337;-71
2023/09/13 07:28:08;;;;;;;2.85;1.77;;;14.90;99.90;;;;;;6185067;23;20043;-69
2023/09/13 07:30:33;;;;;;;4.05;1.73;;;14.90;99.90;;;;;;6211934;23;20406;-68
2023/09/13 07:33:00;;;;;;;3.97;1.70;;;15.00;99.90;;;;;;6211592;23;20016;-68
2023/09/13 07:35:26;;;;;;;6.60;1.70;;;15.00;99.90;;;;;;6211638;23;20027;-68
2023/09/13 07:37:52;;;;;;;7.20;2.10;;;15.00;99.90;;;;;;6211415;23;20012;-67
2023/09/13 07:40:17;;;;;;;9.52;2.30;;;15.10;99.90;;;;;;6211794;23;20055;-67
2023/09/13 07:42:43;;;;;;;7.60;1.85;;;15.00;99.90;;;;;;6211865;23;20443;-68
2023/09/13 07:45:09;;;;;;;4.13;1.92;;;15.00;99.90;;;;;;6211260;23;20110;-68
2023/09/13 07:47:34;;;;;;;4.28;2.00;;;15.10;99.90;;;;;;6211433;23;20016;-68
2023/09/13 07:50:00;;;;;;;4.78;2.00;;;15.10;99.90;;;;;;6184109;23;20024;-68
2023/09/13 07:52:26;;;;;;;5.55;1.88;;;15.10;99.90;;;;;;6211128;23;20016;-69
2023/09/13 07:54:52;;;;;;;7.88;2.03;;;15.10;99.90;;;;;;6210601;23;20054;-68
2023/09/13 07:57:18;;;;;;;7.32;2.22;;;15.10;99.90;;;;;;6211316;23;20016;-68
2023/09/13 07:59:44;;;;;;;8.93;2.08;;;15.20;99.90;;;;;;6211196;23;20013;-68
2023/09/13 08:02:10;;;;;;;4.20;1.98;;;15.20;99.90;;;;;;6211454;23;20017;-68
2023/09/13 08:04:35;;;;;;;7.55;2.03;;;15.30;99.90;;;;;;6210892;23;20028;-68
2023/09/13 08:07:02;;;;;;;4.43;1.83;;;15.20;99.90;;;;;;6210856;23;20025;-68
2023/09/13 08:09:28;;;;;;;6.68;2.33;;;15.20;99.90;;;;;;6211032;23;20131;-68
2023/09/13 08:11:54;;;;;;;6.35;2.35;;;15.30;99.90;;;;;;6184143;23;20029;-68
2023/09/13 08:14:20;;;;;;;11.30;2.30;;;15.30;99.90;;;;;;6211166;23;20052;-68
2023/09/13 08:16:46;;;;;;;8.55;2.45;;;15.30;99.90;;;;;;6184382;23;20097;-68
2023/09/13 08:19:12;;;;;;;8.52;2.35;;;15.30;99.90;;;;;;6210789;23;20274;-68
2023/09/13 08:21:38;;;;;;;9.85;2.25;;;15.30;99.90;;;;;;6210431;23;20077;-68
2023/09/13 08:24:04;;;;;;;11.15;2.70;;;15.30;99.90;;;;;;6183941;23;20025;-68
2023/09/13 08:26:30;;;;;;;7.93;2.58;;;15.30;99.90;;;;;;6210283;23;20016;-68
2023/09/13 08:28:57;;;;;;;8.77;2.35;;;15.40;99.90;;;;;;6210648;23;20076;-68
2023/09/13 08:31:25;;;;;;;7.65;2.83;;;15.30;99.90;;;;;;6210837;23;20023;-68
2023/09/13 08:33:54;;;;;;;6.78;2.20;;;15.40;99.90;;;;;;6210547;23;20021;-68
2023/09/13 08:36:20;;;;;;;10.85;2.53;;;15.40;99.90;;;;;;6183213;23;20020;-68
2023/09/13 08:38:46;;;;;;;11.32;2.90;;;15.40;99.90;;;;;;6210629;23;20221;-68
2023/09/13 08:41:17;;;;;;;7.93;2.70;;;15.40;99.90;;;;;;6210788;23;20025;-68
2023/09/13 08:43:43;;;;;;;9.55;3.05;;;15.50;99.90;;;;;;6211001;23;20005;-68
2023/09/13 08:46:11;;;;;;;7.30;2.33;;;15.50;99.90;;;;;;6210647;23;20334;-68
2023/09/13 08:48:38;;;;;;;10.43;2.33;;;15.50;99.90;;;;;;6210447;23;20074;-67
2023/09/13 08:51:05;;;;;;;10.52;2.30;;;15.50;99.90;;;;;;6209881;23;20021;-68
2023/09/13 08:53:32;;;;;;;8.95;3.15;;;15.50;99.90;;;;;;6210453;23;20473;-68
2023/09/13 08:55:59;;;;;;;9.77;3.20;;;15.60;99.90;;;;;;6210788;23;20024;-68
2023/09/13 08:58:26;;;;;;;7.70;2.75;;;15.60;99.90;;;;;;6183793;23;20017;-68
2023/09/13 09:00:53;;;;;;;9.57;2.63;;;15.60;99.90;;;;;;6210292;23;20020;-68
2023/09/13 09:03:23;;;;;;;7.50;2.25;;;15.70;99.90;;;;;;6210328;23;20633;-68
2023/09/13 09:05:50;;;;;;;4.38;1.80;;;15.80;99.90;;;;;;6210617;23;20408;-68
2023/09/13 09:08:16;;;;;;;10.63;2.60;;;15.80;99.90;;;;;;6210738;23;20024;-68
2023/09/13 09:10:43;;;;;;;10.82;2.72;;;15.90;99.90;;;;;;6210629;23;20024;-68
2023/09/13 09:13:10;;;;;;;7.60;2.38;;;15.80;99.90;;;;;;6183705;23;20020;-68
2023/09/13 09:15:39;;;;;;;10.85;2.83;;;15.80;99.90;;;;;;6210356;23;20044;-68
2023/09/13 09:18:09;;;;;;;7.90;2.38;;;15.90;99.90;;;;;;6210791;23;20655;-68
2023/09/13 09:20:38;;;;;;;8.85;2.30;;;16.00;99.90;;;;;;6183339;23;20024;-68
2023/09/13 09:23:08;;;;;;;5.03;1.92;;;16.00;99.90;;;;;;6210769;23;20349;-68
2023/09/13 09:25:38;;;;;;;5.80;2.20;;;15.90;99.90;;;;;;6209921;23;20020;-68
2023/09/13 09:28:05;;;;;;;6.85;2.30;;;16.00;99.90;;;;;;6210748;23;20361;-68
2023/09/13 09:30:32;;;;;;;6.10;2.53;;;16.00;99.90;;;;;;6210610;23;20399;-68
2023/09/13 09:33:03;;;;;;;6.97;2.63;;;16.10;99.90;;;;;;6208678;23;20082;-68
2023/09/13 09:35:30;;;;;;;8.80;2.15;;;16.20;99.90;;;;;;6210324;23;20337;-70
2023/09/13 09:37:55;;;;;;;5.68;2.63;;;16.20;99.90;;;;;;6210474;23;20084;-68
2023/09/13 09:40:21;;;;;;;5.07;1.63;;;16.30;99.90;;;;;;6210464;23;20017;-68
2023/09/13 09:42:57;;;;;;;6.00;2.05;;;16.20;99.90;;;;;;6210670;23;20008;-68
2023/09/13 09:45:24;;;;;;;4.75;2.00;;;16.30;99.90;;;;;;6210580;23;20136;-68
2023/09/13 09:47:50;;;;;;;3.22;1.90;;;16.30;99.90;;;;;;6210470;23;20094;-68
2023/09/13 09:50:17;;;;;;;5.38;2.10;;;16.40;99.90;;;;;;6210347;23;20094;-68
2023/09/13 09:52:51;;;;;;;8.05;2.38;;;16.50;99.90;;;;;;6210634;23;20024;-68
2023/09/13 09:55:21;;;;;;;12.10;2.85;;;16.60;99.90;;;;;;6210936;23;20344;-68
2023/09/13 09:57:52;;;;;;;11.02;2.72;;;16.70;99.90;;;;;;6210899;23;20008;-68
2023/09/13 10:00:18;;;;;;;7.07;2.60;;;16.60;99.90;;;;;;6184462;23;20326;-68
2023/09/13 10:02:47;;;;;;;5.78;2.00;;;16.70;99.90;;;;;;6187084;23;20031;-68
2023/09/13 10:05:16;;;;;;;4.28;2.40;;;16.70;99.90;;;;;;6187002;23;20336;-69
2023/09/13 10:07:54;;;;;;;5.45;1.92;;;16.50;99.90;;;;;;6186104;23;20025;-68
2023/09/13 10:10:29;;;;;;;10.57;2.20;;;16.50;99.90;;;;;;6186402;23;20060;-68
2023/09/13 10:12:55;;;;;;;6.35;2.28;;;16.50;99.90;;;;;;6185731;23;20031;-68
2023/09/13 10:15:22;;;;;;;3.78;1.67;;;16.60;99.90;;;;;;6212526;23;20025;-68
2023/09/13 10:17:49;;;;;;;9.02;2.03;;;16.60;99.90;;;;;;6185099;23;20349;-68
2023/09/13 10:20:17;;;;;;;9.93;1.95;;;16.70;99.90;;;;;;6212048;23;20025;-68
2023/09/13 10:22:45;;;;;;;6.25;2.08;;;16.80;99.90;;;;;;6212295;23;20023;-68
2023/09/13 10:25:14;;;;;;;9.88;2.17;;;16.90;99.90;;;;;;6212372;23;20337;-68
2023/09/13 10:27:44;;;;;;;6.15;2.20;;;17.00;99.90;;;;;;6212452;23;20021;-68
2023/09/13 10:30:13;;;;;;;4.32;1.58;;;17.00;99.90;;;;;;6185170;23;20028;-68
2023/09/13 10:32:52;;;;;;;6.93;1.83;;;17.10;99.90;;;;;;6211824;23;20351;-69
2023/09/13 10:35:19;;;;;;;6.68;1.88;;;17.10;99.90;;;;;;6185251;23;20020;-68
2023/09/13 10:37:57;;;;;;;7.30;1.90;;;17.10;99.90;;;;;;6212240;23;20341;-68
2023/09/13 10:40:30;;;;;;;5.90;2.10;;;17.10;99.90;;;;;;6185235;23;20025;-69
2023/09/13 10:42:56;;;;;;;8.82;2.20;;;17.10;99.90;;;;;;6185082;23;20028;-68
2023/09/13 10:45:24;;;;;;;4.22;1.65;;;17.10;99.90;;;;;;6212213;23;20081;-68
2023/09/13 10:47:51;;;;;;;5.35;1.90;;;17.10;99.90;;;;;;6184825;23;20020;-69
2023/09/13 10:50:18;;;;;;;11.77;2.30;;;17.10;99.90;;;;;;6211744;23;20021;-69
2023/09/13 10:52:45;;;;;;;6.60;1.85;;;17.10;99.90;;;;;;6212072;23;20432;-69
2023/09/13 10:55:12;;;;;;;5.72;1.45;;;16.90;99.90;;;;;;6210368;23;20344;-69
2023/09/13 10:57:40;;;;;;;8.43;2.20;;;16.80;99.90;;;;;;6184742;23;20317;-69
2023/09/13 11:00:10;;;;;;;6.57;1.80;;;16.60;99.90;;;;;;6185187;23;20025;-69
2023/09/13 11:02:37;;;;;;;2.30;1.33;;;16.50;99.90;;;;;;6211813;23;20017;-69
2023/09/13 11:05:03;;;;;;;6.88;1.50;;;16.40;99.90;;;;;;6212311;23;20013;-69
2023/09/13 11:07:37;;;;;;;6.13;1.80;;;16.30;99.90;;;;;;6185413;23;20103;-69
2023/09/13 11:10:04;;;;;;;7.38;1.73;;;16.30;99.90;;;;;;6212098;23;20021;-68
2023/09/13 11:12:37;;;;;;;4.65;1.88;;;16.30;99.90;;;;;;6211893;23;20051;-68
2023/09/13 11:15:32;;;;;;;;;;;16.20;99.90;;;;;;6212911;23;20084;-69
2023/09/13 11:18:14;;;;;;;5.45;2.00;;;16.40;99.90;;;;;;6186037;23;20011;-69
2023/09/13 11:20:41;;;;;;;9.82;2.25;;;16.40;99.90;;;;;;6160156;23;20039;-69
2023/09/13 11:23:09;;;;;;;5.40;2.08;;;16.40;99.90;;;;;;6211786;23;20028;-69
2023/09/13 11:25:36;;;;;;;5.35;1.80;;;16.60;99.90;;;;;;6212143;23;20016;-69
2023/09/13 11:28:08;;;;;;;7.05;2.30;;;16.60;99.90;;;;;;6185244;23;20024;-69
2023/09/13 11:30:50;;;;;;;9.50;1.90;;;16.70;99.90;;;;;;6211696;23;20024;-69
2023/09/13 11:33:16;;;;;;;6.90;1.92;;;16.70;99.90;;;;;;6211469;23;20024;-69
2023/09/13 11:35:46;;;;;;;6.13;2.35;;;16.80;99.90;;;;;;6184652;23;20024;-69
2023/09/13 11:38:13;;;;;;;7.65;1.98;;;16.90;99.90;;;;;;6184762;23;20025;-69
2023/09/13 11:40:46;;;;;;;8.07;2.17;;;17.00;99.90;;;;;;6184589;23;20028;-69
2023/09/13 11:43:12;;;;;;;7.30;2.22;;;17.10;99.90;;;;;;6184675;23;20348;-69
2023/09/13 11:45:40;;;;;;;11.30;2.00;;;17.10;99.90;;;;;;6159339;23;20024;-69
2023/09/13 11:48:07;;;;;;;7.50;1.80;;;17.10;99.90;;;;;;6211102;23;20052;-69
2023/09/13 11:50:43;;;;;;;9.05;2.63;;;17.20;99.90;;;;;;6211294;23;20024;-69
2023/09/13 11:53:21;;;;;;;5.45;2.10;;;17.30;99.90;;;;;;6184499;23;20029;-69
2023/09/13 11:55:57;;;;;;;5.63;1.98;;;17.40;99.90;;;;;;6211068;23;20032;-69
2023/09/13 11:58:37;;;;;;;7.55;2.47;;;17.30;99.90;;;;;;6211232;23;20013;-69
2023/09/13 12:01:05;;;;;;;8.32;2.15;;;17.40;99.90;;;;;;6211102;23;20087;-69
2023/09/13 12:03:33;;;;;;;6.20;2.00;;;17.50;99.90;;;;;;6211177;23;20092;-69
2023/09/13 12:06:00;;;;;;;10.82;2.25;;;17.70;99.90;;;;;;6211352;23;20043;-69
2023/09/13 12:08:28;;;;;;;5.57;1.83;;;17.70;99.90;;;;;;6211267;23;20021;-69
2023/09/13 12:10:56;;;;;;;8.70;2.65;;;17.70;99.90;;;;;;6184569;23;20024;-68
2023/09/13 12:13:50;;;;;;;3.55;1.70;;;17.90;99.90;;;;;;6184473;23;20301;-69
2023/09/13 12:16:17;;;;;;;5.60;1.92;;;17.90;99.90;;;;;;6184144;23;20448;-68
2023/09/13 12:18:43;;;;;;;5.00;2.00;;;17.80;99.90;;;;;;6211141;23;20091;-69
2023/09/13 12:21:11;;;;;;;7.22;1.58;;;17.80;99.90;;;;;;6210908;23;20457;-69
2023/09/13 12:23:39;;;;;;;5.82;1.98;;;17.90;99.90;;;;;;6184331;23;20029;-69
2023/09/13 12:26:09;;;;;;;7.65;1.73;;;17.80;99.90;;;;;;6211328;23;20017;-69
2023/09/13 12:28:37;;;;;;;10.00;1.60;;;17.80;99.90;;;;;;6211174;23;20035;-69
2023/09/13 12:31:09;;;;;;;4.70;1.67;;;17.80;99.90;;;;;;6211203;23;20092;-69
2023/09/13 12:33:36;;;;;;;6.00;1.75;;;17.90;99.90;;;;;;6184316;23;20051;-69
2023/09/13 12:36:03;;;;;;;5.35;2.13;;;18.00;99.90;;;;;;6211234;23;20024;-69
2023/09/13 12:38:42;;;;;;;5.45;1.45;;;18.10;99.90;;;;;;6211071;23;20605;-69
2023/09/13 12:41:09;;;;;;;5.10;1.38;;;18.20;99.90;;;;;;6183937;23;20448;-69
2023/09/13 12:43:42;;;;;;;3.33;1.50;;;18.10;99.90;;;;;;6210373;23;20514;-69
2023/09/13 12:46:12;;;;;;;4.07;1.70;;;18.10;99.90;;;;;;6184219;23;20016;-69
2023/09/13 12:48:38;;;;;;;1.60;1.10;;;18.10;99.90;;;;;;6211149;23;20024;-69